createdAt,value
2023-04-06T01:51:27.023Z,9.23
2023-04-06T01:54:01.192Z,8.25
2023-04-06T01:56:50.875Z,12.25
2023-04-06T01:59:34.026Z,6.62
2023-04-06T02:02:05.827Z,7.37
2023-04-06T02:04:35.973Z,7.53
2023-04-06T02:07:10.160Z,6.53
2023-04-06T02:09:39.946Z,7.33
2023-04-06T02:12:11.156Z,4.87
2023-04-06T02:14:41.765Z,6.35
2023-04-06T02:17:11.942Z,6.22
2023-04-06T02:19:42.022Z,9.73
2023-04-06T02:22:12.030Z,6.10
2023-04-06T02:25:41.442Z,8.00
2023-04-06T02:28:11.417Z,6.90
2023-04-06T02:30:41.355Z,6.87
2023-04-06T02:33:10.906Z,5.67
2023-04-06T02:35:42.663Z,7.30
2023-04-06T02:38:12.214Z,8.08
2023-04-06T02:40:41.751Z,6.80
2023-04-06T02:43:19.180Z,5.58
2023-04-06T02:45:48.835Z,7.00
2023-04-06T02:48:18.556Z,5.30
2023-04-06T02:50:48.124Z,7.42
2023-04-06T02:53:18.079Z,4.95
2023-04-06T02:55:47.569Z,8.23
2023-04-06T02:58:17.507Z,7.65
2023-04-06T03:00:48.687Z,8.05
2023-04-06T03:03:18.495Z,5.70
2023-04-06T03:05:48.709Z,5.55
2023-04-06T03:08:19.597Z,5.70
2023-04-06T03:10:49.129Z,4.83
2023-04-06T03:13:19.949Z,5.95
2023-04-06T03:15:54.496Z,5.10
2023-04-06T03:18:26.396Z,6.50
2023-04-06T03:20:57.671Z,8.53
2023-04-06T03:23:46.334Z,8.50
2023-04-06T03:26:16.441Z,7.37
2023-04-06T03:28:46.032Z,8.60
2023-04-06T03:31:15.869Z,5.25
2023-04-06T03:33:47.117Z,6.65
2023-04-06T03:36:18.322Z,7.60
2023-04-06T03:38:48.273Z,6.05
2023-04-06T03:41:17.729Z,6.83
2023-04-06T03:43:49.649Z,9.45
2023-04-06T03:46:19.791Z,7.17
2023-04-06T03:48:51.659Z,8.33
2023-04-06T03:51:22.311Z,7.05
2023-04-06T03:53:52.481Z,8.50
2023-04-06T03:56:22.113Z,10.32
2023-04-06T03:58:52.566Z,7.58
2023-04-06T04:01:23.722Z,7.43
2023-04-06T04:03:53.593Z,7.50
2023-04-06T04:06:23.566Z,6.08
2023-04-06T04:08:53.482Z,9.50
2023-04-06T04:11:22.955Z,7.33
2023-04-06T04:13:54.251Z,8.85
2023-04-06T04:16:23.813Z,7.90
2023-04-06T04:18:53.367Z,7.72
2023-04-06T04:21:23.293Z,13.00
2023-04-06T04:23:54.092Z,11.35
2023-04-06T04:26:23.676Z,8.43
2023-04-06T04:28:53.310Z,10.43
2023-04-06T04:31:23.944Z,6.92
2023-04-06T04:33:55.532Z,9.88
2023-04-06T04:36:26.773Z,8.33
2023-04-06T04:38:57.549Z,11.30
2023-04-06T04:41:27.664Z,9.73
2023-04-06T04:43:57.548Z,10.32
2023-04-06T04:46:27.383Z,11.80
2023-04-06T04:48:57.643Z,9.80
2023-04-06T04:51:27.265Z,9.35
2023-04-06T04:54:04.522Z,9.65
2023-04-06T04:56:34.926Z,8.33
2023-04-06T04:59:22.145Z,9.80
2023-04-06T05:01:55.637Z,7.50
2023-04-06T05:04:26.578Z,8.23
2023-04-06T05:07:10.427Z,8.80
2023-04-06T05:09:41.985Z,9.45
2023-04-06T05:12:13.762Z,13.98
2023-04-06T05:14:45.227Z,6.60
2023-04-06T05:17:16.552Z,9.48
2023-04-06T05:19:46.977Z,6.07
2023-04-06T05:22:18.779Z,10.03
2023-04-06T05:24:50.024Z,10.00
2023-04-06T05:27:20.937Z,10.05
2023-04-06T05:29:53.910Z,9.85
2023-04-06T05:32:26.676Z,15.70
2023-04-06T05:34:57.249Z,10.63
2023-04-06T05:37:28.400Z,12.74
2023-04-06T05:39:58.005Z,14.78
2023-04-06T05:42:28.731Z,16.25
2023-04-06T05:44:59.912Z,11.67
2023-04-06T05:47:29.461Z,9.50
2023-04-06T05:50:00.868Z,10.72
2023-04-06T05:52:36.375Z,12.37
2023-04-06T05:55:09.524Z,12.47
2023-04-06T05:57:41.333Z,15.68
2023-04-06T06:00:12.763Z,15.88
2023-04-06T06:02:43.538Z,16.93
2023-04-06T06:05:14.869Z,18.93
2023-04-06T06:07:45.169Z,15.10
2023-04-06T06:10:14.941Z,11.68
2023-04-06T06:12:44.491Z,11.88
2023-04-06T06:15:14.760Z,16.45
2023-04-06T06:17:46.009Z,13.30
2023-04-06T06:20:16.732Z,14.40
2023-04-06T06:22:46.398Z,15.17
2023-04-06T06:25:17.701Z,14.43
2023-04-06T06:27:48.447Z,10.72
2023-04-06T06:30:21.000Z,15.98
2023-04-06T06:32:53.266Z,13.80
2023-04-06T06:35:24.554Z,14.28
2023-04-06T06:37:54.742Z,14.68
2023-04-06T06:40:27.203Z,16.87
2023-04-06T06:42:57.959Z,16.57
2023-04-06T06:45:37.844Z,12.78
2023-04-06T06:48:08.308Z,14.68
2023-04-06T06:50:37.936Z,14.07
2023-04-06T06:53:07.546Z,17.62
2023-04-06T06:55:38.258Z,12.18
2023-04-06T06:58:09.045Z,14.15
2023-04-06T07:00:38.607Z,19.32
2023-04-06T07:03:09.299Z,12.90
2023-04-06T07:05:41.331Z,13.85
2023-04-06T07:08:10.393Z,14.05
2023-04-06T07:10:40.379Z,15.98
2023-04-06T07:13:09.939Z,16.05
2023-04-06T07:15:39.581Z,12.55
2023-04-06T07:18:10.643Z,12.05
2023-04-06T07:20:40.312Z,15.75
2023-04-06T07:23:09.936Z,10.93
2023-04-06T07:25:39.874Z,18.20
2023-04-06T07:28:11.602Z,12.73
2023-04-06T07:30:42.307Z,12.25
2023-04-06T07:33:12.920Z,12.00
2023-04-06T07:35:44.489Z,12.43
2023-04-06T07:38:15.795Z,9.27
2023-04-06T07:40:45.652Z,10.68
2023-04-06T07:43:16.765Z,14.58
2023-04-06T07:45:46.611Z,9.13
2023-04-06T07:48:17.182Z,15.63
2023-04-06T07:50:47.622Z,7.50
2023-04-06T07:53:17.911Z,10.90
2023-04-06T07:55:47.581Z,11.48
2023-04-06T07:58:17.351Z,9.23
2023-04-06T08:00:46.834Z,10.63
2023-04-06T08:03:17.826Z,8.63
2023-04-06T08:05:47.938Z,15.83
2023-04-06T08:08:17.910Z,13.40
2023-04-06T08:10:47.388Z,10.28
2023-04-06T08:13:18.188Z,8.38
2023-04-06T08:15:47.903Z,12.73
2023-04-06T08:18:17.561Z,8.90
2023-04-06T08:20:47.210Z,8.78
2023-04-06T08:23:17.017Z,9.13
2023-04-06T08:25:46.583Z,20.97
2023-04-06T08:28:17.765Z,8.20
2023-04-06T08:30:47.264Z,9.28
2023-04-06T08:33:17.230Z,9.23
2023-04-06T08:35:46.865Z,7.67
2023-04-06T08:38:16.712Z,7.84
2023-04-06T08:40:47.994Z,17.30
2023-04-06T08:43:19.013Z,19.07
2023-04-06T08:45:48.912Z,8.30
2023-04-06T08:48:19.596Z,17.70
2023-04-06T08:50:50.069Z,10.13
2023-04-06T08:53:22.937Z,9.35
2023-04-06T08:55:53.412Z,7.67
2023-04-06T08:58:35.546Z,8.88
2023-04-06T09:00:56.296Z,14.25
2023-04-06T09:03:28.792Z,8.50
2023-04-06T09:05:58.784Z,7.03
2023-04-06T09:08:28.339Z,9.23
2023-04-06T09:10:57.974Z,8.25
2023-04-06T09:13:27.480Z,11.88
2023-04-06T09:16:09.073Z,7.37
2023-04-06T09:18:38.895Z,9.00
2023-04-06T09:21:11.136Z,8.60
2023-04-06T09:23:41.511Z,10.38
2023-04-06T09:26:18.640Z,5.92
2023-04-06T09:28:53.345Z,10.23
2023-04-06T09:31:28.305Z,8.43
2023-04-06T09:33:58.895Z,9.65
2023-04-06T09:36:43.436Z,10.00
2023-04-06T09:39:14.691Z,9.60
2023-04-06T09:41:47.705Z,8.95
2023-04-06T09:46:59.833Z,8.15
2023-04-06T09:49:20.573Z,8.10
2023-04-06T09:51:53.327Z,7.15
2023-04-06T09:57:00.167Z,5.20
2023-04-06T09:59:48.129Z,8.15
2023-04-06T10:02:26.591Z,6.33
2023-04-06T10:05:08.502Z,6.80
2023-04-06T10:07:49.787Z,10.63
2023-04-06T10:10:13.343Z,5.42
2023-04-06T10:12:44.054Z,6.87
2023-04-06T10:15:13.656Z,6.77
2023-04-06T10:17:43.657Z,10.32
2023-04-06T10:20:16.335Z,4.43
2023-04-06T10:22:56.779Z,5.55
2023-04-06T10:25:33.609Z,8.75
2023-04-06T10:28:11.188Z,6.87
2023-04-06T10:30:45.151Z,6.75
2023-04-06T10:33:22.852Z,6.87
2023-04-06T10:35:52.790Z,9.55
2023-04-06T10:38:24.023Z,6.67
2023-04-06T10:40:53.586Z,7.45
2023-04-06T10:43:25.325Z,5.37
2023-04-06T10:45:59.655Z,4.80
2023-04-06T10:48:44.418Z,3.45
2023-04-06T10:51:15.843Z,4.03
2023-04-06T10:53:51.097Z,6.47
2023-04-06T10:56:23.839Z,6.83
2023-04-06T10:58:58.141Z,6.03
2023-04-06T11:01:28.810Z,5.45
2023-04-06T11:04:00.479Z,7.10
2023-04-06T11:06:33.831Z,6.80
2023-04-06T11:09:03.633Z,4.45
2023-04-06T11:11:33.098Z,4.20
2023-04-06T11:14:03.529Z,4.30
2023-04-06T11:16:34.967Z,3.40
2023-04-06T11:19:11.256Z,3.17
2023-04-06T11:21:47.959Z,4.17
2023-04-06T11:24:25.356Z,4.10
2023-04-06T11:26:59.624Z,4.42
2023-04-06T11:29:31.934Z,4.53
2023-04-06T11:32:03.606Z,3.65
2023-04-06T11:34:42.276Z,4.67
2023-04-06T11:37:13.770Z,3.17
2023-04-06T11:39:52.227Z,3.17
2023-04-06T11:42:27.683Z,2.35
2023-04-06T11:44:59.719Z,3.12
2023-04-06T11:47:36.561Z,5.50
2023-04-06T11:50:11.157Z,3.65
2023-04-06T11:52:42.602Z,4.15
2023-04-06T11:55:21.117Z,2.37
2023-04-06T11:57:52.609Z,2.12
2023-04-06T12:00:25.554Z,1.98
2023-04-06T12:03:14.815Z,3.67
2023-04-06T12:08:15.969Z,1.72
2023-04-06T12:10:47.672Z,2.87
2023-04-06T12:13:17.161Z,3.30
2023-04-06T12:15:46.659Z,1.82
2023-04-06T12:18:16.157Z,2.55
2023-04-06T12:20:45.784Z,4.40
2023-04-06T12:23:15.390Z,2.33
2023-04-06T12:25:45.806Z,2.50
2023-04-06T12:28:15.900Z,1.60
2023-04-06T12:30:45.459Z,3.20
2023-04-06T12:33:15.480Z,2.25
2023-04-06T12:35:45.177Z,1.60
2023-04-06T12:38:14.922Z,1.67
2023-04-06T12:40:44.392Z,2.15
2023-04-06T12:43:14.742Z,2.87
2023-04-06T12:45:44.305Z,1.85
2023-04-06T12:48:13.840Z,3.90
2023-04-06T12:50:43.449Z,2.20
2023-04-06T12:53:12.916Z,2.30
2023-04-06T12:55:42.390Z,2.35
2023-04-06T12:58:12.787Z,2.27
2023-04-06T13:00:42.648Z,2.77
2023-04-06T13:03:12.226Z,3.55
2023-04-06T13:05:49.159Z,2.27
2023-04-06T13:08:22.168Z,1.83
2023-04-06T13:10:54.916Z,1.40
2023-04-06T13:16:04.737Z,1.52
2023-04-06T13:18:35.721Z,1.27
2023-04-06T13:21:05.898Z,1.25
2023-04-06T13:23:36.762Z,2.08
2023-04-06T13:26:08.705Z,4.60
2023-04-06T13:28:40.629Z,2.10
2023-04-06T13:31:11.038Z,1.20
2023-04-06T13:33:42.424Z,1.55
2023-04-06T13:36:12.799Z,1.32
2023-04-06T13:38:42.525Z,1.07
2023-04-06T13:41:13.989Z,3.75
2023-04-06T13:44:03.166Z,3.60
2023-04-06T13:46:33.511Z,1.75
2023-04-06T13:49:03.461Z,1.57
2023-04-06T13:51:33.111Z,1.52
2023-04-06T13:54:02.579Z,2.65
2023-04-06T13:56:32.337Z,1.12
2023-04-06T13:59:01.892Z,3.75
2023-04-06T14:01:31.565Z,2.60
2023-04-06T14:04:01.322Z,2.80
2023-04-06T14:06:31.990Z,1.77
2023-04-06T14:09:02.369Z,1.77
2023-04-06T14:11:33.047Z,8.98
2023-04-06T14:16:33.192Z,3.15
2023-04-06T14:19:04.126Z,1.47
2023-04-06T14:21:35.309Z,1.82
2023-04-06T14:24:05.436Z,2.87
2023-04-06T14:26:34.901Z,3.40
2023-04-06T14:29:05.595Z,1.20
2023-04-06T14:31:36.872Z,2.20
2023-04-06T14:34:08.769Z,1.45
2023-04-06T14:36:39.442Z,1.02
2023-04-06T14:39:11.229Z,1.70
2023-04-06T14:41:42.043Z,1.55
2023-04-06T14:44:14.056Z,1.82
2023-04-06T14:46:43.599Z,1.13
2023-04-06T14:49:14.862Z,2.15
2023-04-06T14:51:44.601Z,1.72
2023-04-06T14:54:14.074Z,1.52
2023-04-06T14:56:44.977Z,1.80
2023-04-06T14:59:14.501Z,4.03
2023-04-06T15:01:45.310Z,1.50
2023-04-06T15:04:15.509Z,1.40
2023-04-06T15:06:45.644Z,4.05
2023-04-06T15:09:15.652Z,1.62
2023-04-06T15:11:46.304Z,2.77
2023-04-06T15:14:17.839Z,1.20
2023-04-06T15:16:47.955Z,1.57
2023-04-06T15:19:17.440Z,1.52
2023-04-06T15:21:47.306Z,1.42
2023-04-06T15:24:16.786Z,2.60
2023-04-06T15:26:46.808Z,1.10
2023-04-06T15:29:16.713Z,2.65
2023-04-06T15:31:46.997Z,2.10
2023-04-06T15:34:16.501Z,1.47
2023-04-06T15:36:47.519Z,1.24
2023-04-06T15:39:17.032Z,1.32
2023-04-06T15:41:46.598Z,2.83
2023-04-06T15:44:17.223Z,1.67
2023-04-06T15:46:46.696Z,0.80
2023-04-06T15:49:16.309Z,1.10
2023-04-06T15:51:46.218Z,1.22
2023-04-06T15:54:16.809Z,2.45
2023-04-06T15:56:46.558Z,2.02
2023-04-06T15:59:16.925Z,3.90
2023-04-06T16:01:48.790Z,1.40
2023-04-06T16:04:18.369Z,2.40
2023-04-06T16:06:48.454Z,1.85
2023-04-06T16:09:17.920Z,2.45
2023-04-06T16:11:47.417Z,3.25
2023-04-06T16:14:16.969Z,2.55
2023-04-06T16:16:46.931Z,1.10
2023-04-06T16:19:17.463Z,3.50
2023-04-06T16:21:47.747Z,1.54
2023-04-06T16:24:17.908Z,2.90
2023-04-06T16:26:49.429Z,3.08
2023-04-06T16:29:19.172Z,2.20
2023-04-06T16:31:48.833Z,2.00
2023-04-06T16:34:18.750Z,1.60
2023-04-06T16:36:48.443Z,1.65
2023-04-06T16:39:17.976Z,1.27
2023-04-06T16:41:47.469Z,4.10
2023-04-06T16:44:17.178Z,1.05
2023-04-06T16:46:47.337Z,3.55
2023-04-06T16:49:19.612Z,3.90
2023-04-06T16:51:50.224Z,2.27
2023-04-06T16:54:19.693Z,3.17
2023-04-06T16:56:49.213Z,2.58
2023-04-06T16:59:18.675Z,1.32
2023-04-06T17:01:48.869Z,1.25
2023-04-06T17:04:18.770Z,2.75
2023-04-06T17:06:48.667Z,1.72
2023-04-06T17:09:18.285Z,2.30
2023-04-06T17:11:47.907Z,1.82
2023-04-06T17:14:19.093Z,1.35
2023-04-06T17:16:48.561Z,4.28
2023-04-06T17:19:18.026Z,1.10
2023-04-06T17:21:48.456Z,3.05
2023-04-06T17:24:17.925Z,1.22
2023-04-06T17:26:47.403Z,3.75
2023-04-06T17:29:17.655Z,3.58
2023-04-06T17:31:47.128Z,0.90
2023-04-06T17:34:16.617Z,2.40
2023-04-06T17:36:47.068Z,2.75
2023-04-06T17:39:17.777Z,1.32
2023-04-06T17:41:48.118Z,3.80
2023-04-06T17:44:17.665Z,2.35
2023-04-06T17:46:47.211Z,2.37
2023-04-06T17:49:17.269Z,2.77
2023-04-06T17:51:46.940Z,2.35
2023-04-06T17:54:16.818Z,4.58
2023-04-06T17:56:48.124Z,2.45
2023-04-06T17:59:17.664Z,1.45
2023-04-06T18:01:47.311Z,1.50
2023-04-06T18:04:18.617Z,1.60
2023-04-06T18:06:48.486Z,1.62
2023-04-06T18:09:18.016Z,1.85
2023-04-06T18:11:47.480Z,1.07
2023-04-06T18:14:17.057Z,3.00
2023-04-06T18:16:46.564Z,1.87
2023-04-06T18:19:16.541Z,1.57
2023-04-06T18:21:46.217Z,2.42
2023-04-06T18:24:27.284Z,1.37
2023-04-06T18:26:47.308Z,2.80
2023-04-06T18:29:17.274Z,3.40
2023-04-06T18:31:48.444Z,4.00
2023-04-06T18:34:18.945Z,3.37
2023-04-06T18:36:49.099Z,1.65
2023-04-06T18:39:18.738Z,1.62
2023-04-06T18:41:48.713Z,2.17
2023-04-06T18:44:18.282Z,4.20
2023-04-06T18:46:47.840Z,2.02
2023-04-06T18:49:17.399Z,2.75
2023-04-06T18:51:46.943Z,1.35
2023-04-06T18:54:16.619Z,2.17
2023-04-06T18:56:46.507Z,1.65
2023-04-06T18:59:17.852Z,3.95
2023-04-06T19:01:49.101Z,2.08
2023-04-06T19:04:19.153Z,1.92
2023-04-06T19:06:49.275Z,4.08
2023-04-06T19:09:18.829Z,3.10
2023-04-06T19:11:48.327Z,1.75
2023-04-06T19:14:18.438Z,4.05
2023-04-06T19:16:49.578Z,5.70
2023-04-06T19:19:20.089Z,2.95
2023-04-06T19:21:49.868Z,4.25
2023-04-06T19:24:19.427Z,3.30
2023-04-06T19:26:49.098Z,6.75
2023-04-06T19:29:18.637Z,3.70
2023-04-06T19:31:48.867Z,5.40
2023-04-06T19:34:18.586Z,4.23
2023-04-06T19:36:49.338Z,4.67
2023-04-06T19:39:19.026Z,5.85
2023-04-06T19:42:01.146Z,4.60
2023-04-06T19:44:30.777Z,4.23
2023-04-06T19:47:00.235Z,6.90
2023-04-06T19:49:30.736Z,5.45
2023-04-06T19:52:00.369Z,5.12
2023-04-06T19:54:29.855Z,7.37
2023-04-06T19:56:59.432Z,6.12
2023-04-06T19:59:29.422Z,9.23
2023-04-06T20:02:03.674Z,8.20
2023-04-06T20:04:33.395Z,6.95
2023-04-06T20:07:03.701Z,8.67
2023-04-06T20:09:33.158Z,11.57
2023-04-06T20:12:02.641Z,11.57
2023-04-06T20:14:32.362Z,11.38
2023-04-06T20:17:02.072Z,11.45
2023-04-06T20:19:33.213Z,12.98
2023-04-06T20:22:04.077Z,12.23
2023-04-06T20:24:33.749Z,12.37
2023-04-06T20:27:03.218Z,11.12
2023-04-06T20:29:32.838Z,14.15
2023-04-06T20:32:03.535Z,13.43
2023-04-06T20:34:33.770Z,12.45
2023-04-06T20:37:03.578Z,11.53
2023-04-06T20:39:33.107Z,11.43
2023-04-06T20:42:02.650Z,12.82
2023-04-06T20:44:34.407Z,9.70
2023-04-06T20:47:04.600Z,11.28
2023-04-06T20:49:34.275Z,11.15
2023-04-06T20:52:03.840Z,11.87
2023-04-06T20:54:33.326Z,20.77
2023-04-06T20:57:02.880Z,19.45
2023-04-06T20:59:32.602Z,14.73
2023-04-06T21:02:02.234Z,18.15
2023-04-06T21:04:31.961Z,17.42
2023-04-06T21:07:06.059Z,18.57
2023-04-06T21:12:07.388Z,16.95
2023-04-06T21:14:36.846Z,16.97
2023-04-06T21:17:07.085Z,15.32
2023-04-06T21:19:36.579Z,40.10
2023-04-06T21:22:06.052Z,19.10
2023-04-06T21:24:35.628Z,15.53
2023-04-06T21:27:05.251Z,16.40
2023-04-06T21:29:35.322Z,15.93
2023-04-06T21:32:04.884Z,14.00
2023-04-06T21:34:34.434Z,12.45
2023-04-06T21:37:04.687Z,12.75
2023-04-06T21:39:34.130Z,11.33
2023-04-06T21:42:03.690Z,11.12
2023-04-06T21:44:34.932Z,12.65
2023-04-06T21:47:04.645Z,16.10
2023-04-06T21:49:34.580Z,10.18
2023-04-06T21:52:04.216Z,13.58
2023-04-06T21:54:35.305Z,11.85
2023-04-06T21:57:05.123Z,11.08
2023-04-06T21:59:34.701Z,12.60
2023-04-06T22:02:04.255Z,12.37
2023-04-06T22:04:34.419Z,10.95
2023-04-06T22:07:04.497Z,9.53
2023-04-06T22:09:35.812Z,8.48
2023-04-06T22:12:05.449Z,11.12
2023-04-06T22:14:34.954Z,12.75
2023-04-06T22:17:04.457Z,10.63
2023-04-06T22:19:33.942Z,9.35
2023-04-06T22:22:03.602Z,11.43
2023-04-06T22:24:33.182Z,9.03
2023-04-06T22:27:03.923Z,11.85
2023-04-06T22:29:35.798Z,12.53
2023-04-06T22:32:04.603Z,8.95
2023-04-06T22:34:34.163Z,10.10
2023-04-06T22:37:03.632Z,10.72
2023-04-06T22:39:33.151Z,11.65
2023-04-06T22:42:02.790Z,10.50
2023-04-06T22:44:32.277Z,10.48
2023-04-06T22:47:02.303Z,9.30
2023-04-06T22:49:31.904Z,10.18
2023-04-06T22:52:01.773Z,8.50
2023-04-06T22:54:31.444Z,10.18
2023-04-06T22:57:01.621Z,9.03
2023-04-06T22:59:31.152Z,7.80
2023-04-06T23:02:01.033Z,8.05
2023-04-06T23:04:31.201Z,7.33
2023-04-06T23:07:01.177Z,12.18
2023-04-06T23:09:30.679Z,9.03
2023-04-06T23:12:00.160Z,7.30
2023-04-06T23:14:30.230Z,12.10
2023-04-06T23:16:59.798Z,9.23
2023-04-06T23:19:29.327Z,8.90
2023-04-06T23:21:58.927Z,8.93
2023-04-06T23:24:28.474Z,7.37
2023-04-06T23:26:57.963Z,8.58
2023-04-06T23:29:27.518Z,7.80
2023-04-06T23:31:57.003Z,8.33
2023-04-06T23:34:26.532Z,7.53
2023-04-06T23:36:58.042Z,6.78
2023-04-06T23:39:27.863Z,6.78
2023-04-06T23:41:58.191Z,6.00
2023-04-06T23:44:32.348Z,6.15
2023-04-06T23:47:01.824Z,8.58
2023-04-06T23:49:31.304Z,7.30
2023-04-06T23:52:02.253Z,5.92
2023-04-06T23:54:31.781Z,8.00
2023-04-06T23:57:01.438Z,9.13
2023-04-06T23:59:31.004Z,6.12
